sensor_id;sensor_type;location;lat;lon;timestamp;temperature;humidity
4306;DHT22;2166;49.926;8.608;2023-08-06T00:00:51;15.20;75.60
4306;DHT22;2166;49.926;8.608;2023-08-06T00:03:20;15.20;75.70
4306;DHT22;2166;49.926;8.608;2023-08-06T00:05:49;15.20;75.80
4306;DHT22;2166;49.926;8.608;2023-08-06T00:08:17;15.20;75.70
4306;DHT22;2166;49.926;8.608;2023-08-06T00:10:47;15.20;75.80
4306;DHT22;2166;49.926;8.608;2023-08-06T00:13:15;15.10;75.70
4306;DHT22;2166;49.926;8.608;2023-08-06T00:15:45;15.10;75.80
4306;DHT22;2166;49.926;8.608;2023-08-06T00:18:13;15.10;75.90
4306;DHT22;2166;49.926;8.608;2023-08-06T00:20:42;15.10;75.80
4306;DHT22;2166;49.926;8.608;2023-08-06T00:23:11;15.20;76.00
4306;DHT22;2166;49.926;8.608;2023-08-06T00:25:40;15.20;75.90
4306;DHT22;2166;49.926;8.608;2023-08-06T00:28:08;15.30;75.90
4306;DHT22;2166;49.926;8.608;2023-08-06T00:30:37;15.40;75.80
4306;DHT22;2166;49.926;8.608;2023-08-06T00:33:07;15.40;75.60
4306;DHT22;2166;49.926;8.608;2023-08-06T00:35:35;15.50;75.50
4306;DHT22;2166;49.926;8.608;2023-08-06T00:38:04;15.50;75.40
4306;DHT22;2166;49.926;8.608;2023-08-06T00:40:33;15.60;75.40
4306;DHT22;2166;49.926;8.608;2023-08-06T00:43:02;15.60;75.30
4306;DHT22;2166;49.926;8.608;2023-08-06T00:45:31;15.60;75.20
4306;DHT22;2166;49.926;8.608;2023-08-06T00:48:02;15.70;75.20
4306;DHT22;2166;49.926;8.608;2023-08-06T00:50:34;15.70;75.10
4306;DHT22;2166;49.926;8.608;2023-08-06T00:53:03;15.70;75.60
4306;DHT22;2166;49.926;8.608;2023-08-06T00:55:32;15.80;75.50
4306;DHT22;2166;49.926;8.608;2023-08-06T00:58:01;15.80;75.40
4306;DHT22;2166;49.926;8.608;2023-08-06T01:00:30;15.80;75.40
4306;DHT22;2166;49.926;8.608;2023-08-06T01:02:59;15.80;75.40
4306;DHT22;2166;49.926;8.608;2023-08-06T01:05:28;15.90;75.20
4306;DHT22;2166;49.926;8.608;2023-08-06T01:08:11;16.00;75.20
4306;DHT22;2166;49.926;8.608;2023-08-06T01:10:48;16.00;75.10
4306;DHT22;2166;49.926;8.608;2023-08-06T01:13:28;16.00;75.10
4306;DHT22;2166;49.926;8.608;2023-08-06T01:16:02;16.00;75.10
4306;DHT22;2166;49.926;8.608;2023-08-06T01:18:33;16.00;75.10
4306;DHT22;2166;49.926;8.608;2023-08-06T01:21:03;16.10;75.10
4306;DHT22;2166;49.926;8.608;2023-08-06T01:23:31;16.10;75.10
4306;DHT22;2166;49.926;8.608;2023-08-06T01:26:05;16.10;75.00
4306;DHT22;2166;49.926;8.608;2023-08-06T01:28:41;16.10;75.00
4306;DHT22;2166;49.926;8.608;2023-08-06T01:31:18;16.10;75.00
4306;DHT22;2166;49.926;8.608;2023-08-06T01:33:48;16.10;74.90
4306;DHT22;2166;49.926;8.608;2023-08-06T01:36:20;16.10;74.90
4306;DHT22;2166;49.926;8.608;2023-08-06T01:38:51;16.10;74.90
4306;DHT22;2166;49.926;8.608;2023-08-06T01:41:21;16.10;74.90
4306;DHT22;2166;49.926;8.608;2023-08-06T01:43:49;16.10;74.90
4306;DHT22;2166;49.926;8.608;2023-08-06T01:46:17;16.10;75.00
4306;DHT22;2166;49.926;8.608;2023-08-06T01:48:46;16.10;75.00
4306;DHT22;2166;49.926;8.608;2023-08-06T01:51:14;16.10;75.00
4306;DHT22;2166;49.926;8.608;2023-08-06T01:53:45;16.20;74.90
4306;DHT22;2166;49.926;8.608;2023-08-06T01:56:13;16.20;74.90
4306;DHT22;2166;49.926;8.608;2023-08-06T01:58:42;16.20;75.10
4306;DHT22;2166;49.926;8.608;2023-08-06T02:01:10;16.20;75.10
4306;DHT22;2166;49.926;8.608;2023-08-06T02:03:38;16.20;75.10
4306;DHT22;2166;49.926;8.608;2023-08-06T02:06:06;16.20;75.10
4306;DHT22;2166;49.926;8.608;2023-08-06T02:08:35;16.20;75.20
4306;DHT22;2166;49.926;8.608;2023-08-06T02:11:05;16.30;75.10
4306;DHT22;2166;49.926;8.608;2023-08-06T02:13:34;16.20;75.20
4306;DHT22;2166;49.926;8.608;2023-08-06T02:16:03;16.20;75.30
4306;DHT22;2166;49.926;8.608;2023-08-06T02:18:32;16.20;75.30
4306;DHT22;2166;49.926;8.608;2023-08-06T02:21:00;16.20;75.20
4306;DHT22;2166;49.926;8.608;2023-08-06T02:23:29;16.20;75.20
4306;DHT22;2166;49.926;8.608;2023-08-06T02:25:59;16.30;75.30
4306;DHT22;2166;49.926;8.608;2023-08-06T02:28:29;16.30;75.20
4306;DHT22;2166;49.926;8.608;2023-08-06T02:30:57;16.30;75.30
4306;DHT22;2166;49.926;8.608;2023-08-06T02:33:28;16.30;75.20
4306;DHT22;2166;49.926;8.608;2023-08-06T02:35:59;16.40;75.30
4306;DHT22;2166;49.926;8.608;2023-08-06T02:38:29;16.40;75.30
4306;DHT22;2166;49.926;8.608;2023-08-06T02:40:58;16.40;75.30
4306;DHT22;2166;49.926;8.608;2023-08-06T02:43:28;16.40;75.30
4306;DHT22;2166;49.926;8.608;2023-08-06T02:45:57;16.40;75.30
4306;DHT22;2166;49.926;8.608;2023-08-06T02:48:26;16.30;75.40
4306;DHT22;2166;49.926;8.608;2023-08-06T02:50:57;16.30;75.40
4306;DHT22;2166;49.926;8.608;2023-08-06T02:53:28;16.30;75.30
4306;DHT22;2166;49.926;8.608;2023-08-06T02:56:01;16.30;75.50
4306;DHT22;2166;49.926;8.608;2023-08-06T02:58:41;16.30;75.40
4306;DHT22;2166;49.926;8.608;2023-08-06T03:01:20;16.20;75.40
4306;DHT22;2166;49.926;8.608;2023-08-06T03:03:56;16.20;75.40
4306;DHT22;2166;49.926;8.608;2023-08-06T03:06:32;16.20;75.40
4306;DHT22;2166;49.926;8.608;2023-08-06T03:09:01;16.10;75.40
4306;DHT22;2166;49.926;8.608;2023-08-06T03:11:30;16.00;75.40
4306;DHT22;2166;49.926;8.608;2023-08-06T03:14:06;15.90;75.50
4306;DHT22;2166;49.926;8.608;2023-08-06T03:16:36;15.90;75.40
4306;DHT22;2166;49.926;8.608;2023-08-06T03:19:05;15.90;75.50
4306;DHT22;2166;49.926;8.608;2023-08-06T03:21:34;15.90;75.50
4306;DHT22;2166;49.926;8.608;2023-08-06T03:24:04;15.90;75.40
4306;DHT22;2166;49.926;8.608;2023-08-06T03:26:34;15.90;75.50
4306;DHT22;2166;49.926;8.608;2023-08-06T03:29:03;15.90;75.50
4306;DHT22;2166;49.926;8.608;2023-08-06T03:31:35;15.90;75.40
4306;DHT22;2166;49.926;8.608;2023-08-06T03:34:04;15.80;75.50
4306;DHT22;2166;49.926;8.608;2023-08-06T03:36:34;15.80;75.50
4306;DHT22;2166;49.926;8.608;2023-08-06T03:39:02;15.80;75.50
4306;DHT22;2166;49.926;8.608;2023-08-06T03:41:32;15.70;75.50
4306;DHT22;2166;49.926;8.608;2023-08-06T03:44:00;15.60;75.50
4306;DHT22;2166;49.926;8.608;2023-08-06T03:46:31;15.50;75.50
4306;DHT22;2166;49.926;8.608;2023-08-06T03:49:05;15.50;75.50
4306;DHT22;2166;49.926;8.608;2023-08-06T03:51:34;15.50;75.40
4306;DHT22;2166;49.926;8.608;2023-08-06T03:54:02;15.50;75.50
4306;DHT22;2166;49.926;8.608;2023-08-06T03:56:30;15.60;75.50
4306;DHT22;2166;49.926;8.608;2023-08-06T03:58:59;15.60;75.50
4306;DHT22;2166;49.926;8.608;2023-08-06T04:01:27;15.60;75.40
4306;DHT22;2166;49.926;8.608;2023-08-06T04:03:56;15.60;75.50
4306;DHT22;2166;49.926;8.608;2023-08-06T04:06:26;15.60;75.30
4306;DHT22;2166;49.926;8.608;2023-08-06T04:08:54;15.50;75.30
4306;DHT22;2166;49.926;8.608;2023-08-06T04:11:24;15.40;75.30
4306;DHT22;2166;49.926;8.608;2023-08-06T04:13:52;15.20;75.40
4306;DHT22;2166;49.926;8.608;2023-08-06T04:16:24;15.10;75.70
4306;DHT22;2166;49.926;8.608;2023-08-06T04:18:54;15.00;75.70
4306;DHT22;2166;49.926;8.608;2023-08-06T04:21:23;15.00;75.80
4306;DHT22;2166;49.926;8.608;2023-08-06T04:23:53;14.90;76.00
4306;DHT22;2166;49.926;8.608;2023-08-06T04:26:21;14.80;75.60
4306;DHT22;2166;49.926;8.608;2023-08-06T04:28:50;14.70;75.80
4306;DHT22;2166;49.926;8.608;2023-08-06T04:31:19;14.70;76.10
4306;DHT22;2166;49.926;8.608;2023-08-06T04:33:50;14.60;76.30
4306;DHT22;2166;49.926;8.608;2023-08-06T04:36:19;14.60;76.40
4306;DHT22;2166;49.926;8.608;2023-08-06T04:38:48;14.60;76.50
4306;DHT22;2166;49.926;8.608;2023-08-06T04:41:18;14.60;76.60
4306;DHT22;2166;49.926;8.608;2023-08-06T04:43:46;14.60;76.70
4306;DHT22;2166;49.926;8.608;2023-08-06T04:46:16;14.60;76.90
4306;DHT22;2166;49.926;8.608;2023-08-06T04:48:45;14.70;76.90
4306;DHT22;2166;49.926;8.608;2023-08-06T04:51:13;14.70;76.90
4306;DHT22;2166;49.926;8.608;2023-08-06T04:53:41;14.70;77.00
4306;DHT22;2166;49.926;8.608;2023-08-06T04:56:09;14.70;77.00
4306;DHT22;2166;49.926;8.608;2023-08-06T04:58:39;14.70;77.00
4306;DHT22;2166;49.926;8.608;2023-08-06T05:01:07;14.70;77.00
4306;DHT22;2166;49.926;8.608;2023-08-06T05:03:36;14.60;77.00
4306;DHT22;2166;49.926;8.608;2023-08-06T05:06:04;14.60;77.00
4306;DHT22;2166;49.926;8.608;2023-08-06T05:08:33;14.70;77.10
4306;DHT22;2166;49.926;8.608;2023-08-06T05:11:02;14.60;77.10
4306;DHT22;2166;49.926;8.608;2023-08-06T05:13:31;14.60;77.20
4306;DHT22;2166;49.926;8.608;2023-08-06T05:16:01;14.60;77.30
4306;DHT22;2166;49.926;8.608;2023-08-06T05:18:29;14.70;77.40
4306;DHT22;2166;49.926;8.608;2023-08-06T05:20:58;14.70;77.40
4306;DHT22;2166;49.926;8.608;2023-08-06T05:23:26;14.70;77.40
4306;DHT22;2166;49.926;8.608;2023-08-06T05:25:56;14.70;77.30
4306;DHT22;2166;49.926;8.608;2023-08-06T05:28:25;14.70;77.30
4306;DHT22;2166;49.926;8.608;2023-08-06T05:30:53;14.60;77.10
4306;DHT22;2166;49.926;8.608;2023-08-06T05:33:23;14.60;77.10
4306;DHT22;2166;49.926;8.608;2023-08-06T05:35:51;14.60;77.00
4306;DHT22;2166;49.926;8.608;2023-08-06T05:38:20;14.60;77.00
4306;DHT22;2166;49.926;8.608;2023-08-06T05:40:48;14.60;77.10
4306;DHT22;2166;49.926;8.608;2023-08-06T05:43:17;14.60;77.00
4306;DHT22;2166;49.926;8.608;2023-08-06T05:45:45;14.60;77.10
4306;DHT22;2166;49.926;8.608;2023-08-06T05:48:14;14.60;77.10
4306;DHT22;2166;49.926;8.608;2023-08-06T05:50:44;14.60;77.00
4306;DHT22;2166;49.926;8.608;2023-08-06T05:53:13;14.60;77.10
4306;DHT22;2166;49.926;8.608;2023-08-06T05:55:42;14.60;77.10
4306;DHT22;2166;49.926;8.608;2023-08-06T05:58:10;14.60;77.10
4306;DHT22;2166;49.926;8.608;2023-08-06T06:00:39;14.70;77.10
4306;DHT22;2166;49.926;8.608;2023-08-06T06:03:07;14.70;77.10
4306;DHT22;2166;49.926;8.608;2023-08-06T06:05:37;14.80;77.00
4306;DHT22;2166;49.926;8.608;2023-08-06T06:08:08;14.90;76.90
4306;DHT22;2166;49.926;8.608;2023-08-06T06:10:36;14.90;76.80
4306;DHT22;2166;49.926;8.608;2023-08-06T06:13:04;14.90;76.70
4306;DHT22;2166;49.926;8.608;2023-08-06T06:15:36;15.00;76.70
4306;DHT22;2166;49.926;8.608;2023-08-06T06:18:05;15.00;76.70
4306;DHT22;2166;49.926;8.608;2023-08-06T06:20:33;15.00;76.60
4306;DHT22;2166;49.926;8.608;2023-08-06T06:23:02;15.00;76.60
4306;DHT22;2166;49.926;8.608;2023-08-06T06:25:32;15.00;76.50
4306;DHT22;2166;49.926;8.608;2023-08-06T06:28:00;15.00;76.60
4306;DHT22;2166;49.926;8.608;2023-08-06T06:30:29;15.00;76.60
4306;DHT22;2166;49.926;8.608;2023-08-06T06:32:57;15.00;76.50
4306;DHT22;2166;49.926;8.608;2023-08-06T06:35:26;15.00;76.60
4306;DHT22;2166;49.926;8.608;2023-08-06T06:37:54;15.00;76.60
4306;DHT22;2166;49.926;8.608;2023-08-06T06:40:23;15.10;76.70
4306;DHT22;2166;49.926;8.608;2023-08-06T06:42:53;15.10;76.70
4306;DHT22;2166;49.926;8.608;2023-08-06T06:45:22;15.20;76.80
4306;DHT22;2166;49.926;8.608;2023-08-06T06:47:51;15.30;76.70
4306;DHT22;2166;49.926;8.608;2023-08-06T06:50:19;15.40;76.60
4306;DHT22;2166;49.926;8.608;2023-08-06T06:52:47;15.40;76.40
4306;DHT22;2166;49.926;8.608;2023-08-06T06:55:15;15.50;76.30
4306;DHT22;2166;49.926;8.608;2023-08-06T06:57:44;15.50;76.20
4306;DHT22;2166;49.926;8.608;2023-08-06T07:00:14;15.60;75.90
4306;DHT22;2166;49.926;8.608;2023-08-06T07:02:43;15.60;75.90
4306;DHT22;2166;49.926;8.608;2023-08-06T07:05:12;15.50;76.30
4306;DHT22;2166;49.926;8.608;2023-08-06T07:07:40;15.50;76.30
4306;DHT22;2166;49.926;8.608;2023-08-06T07:10:09;15.40;76.40
4306;DHT22;2166;49.926;8.608;2023-08-06T07:12:38;15.40;76.30
4306;DHT22;2166;49.926;8.608;2023-08-06T07:15:06;15.40;76.40
4306;DHT22;2166;49.926;8.608;2023-08-06T07:17:36;15.40;76.40
4306;DHT22;2166;49.926;8.608;2023-08-06T07:20:06;15.50;76.30
4306;DHT22;2166;49.926;8.608;2023-08-06T07:22:34;15.30;76.20
4306;DHT22;2166;49.926;8.608;2023-08-06T07:25:03;15.40;76.30
4306;DHT22;2166;49.926;8.608;2023-08-06T07:27:32;15.30;76.40
4306;DHT22;2166;49.926;8.608;2023-08-06T07:30:00;15.30;76.10
4306;DHT22;2166;49.926;8.608;2023-08-06T07:32:28;15.30;76.20
4306;DHT22;2166;49.926;8.608;2023-08-06T07:34:58;15.30;76.40
4306;DHT22;2166;49.926;8.608;2023-08-06T07:37:28;15.30;76.40
4306;DHT22;2166;49.926;8.608;2023-08-06T07:39:56;15.30;76.40
4306;DHT22;2166;49.926;8.608;2023-08-06T07:42:25;15.20;76.40
4306;DHT22;2166;49.926;8.608;2023-08-06T07:44:54;15.10;76.40
4306;DHT22;2166;49.926;8.608;2023-08-06T07:47:23;15.10;76.30
4306;DHT22;2166;49.926;8.608;2023-08-06T07:49:52;15.10;76.50
4306;DHT22;2166;49.926;8.608;2023-08-06T07:52:22;15.10;76.70
4306;DHT22;2166;49.926;8.608;2023-08-06T07:54:50;15.10;76.70
4306;DHT22;2166;49.926;8.608;2023-08-06T07:57:19;15.10;76.80
4306;DHT22;2166;49.926;8.608;2023-08-06T07:59:47;15.20;76.90
4306;DHT22;2166;49.926;8.608;2023-08-06T08:02:16;15.20;76.70
4306;DHT22;2166;49.926;8.608;2023-08-06T08:04:44;15.20;76.70
4306;DHT22;2166;49.926;8.608;2023-08-06T08:07:14;15.20;76.60
4306;DHT22;2166;49.926;8.608;2023-08-06T08:09:43;15.30;76.60
4306;DHT22;2166;49.926;8.608;2023-08-06T08:12:12;15.30;76.40
4306;DHT22;2166;49.926;8.608;2023-08-06T08:14:40;15.40;76.40
4306;DHT22;2166;49.926;8.608;2023-08-06T08:17:09;15.50;76.30
4306;DHT22;2166;49.926;8.608;2023-08-06T08:19:39;15.60;76.00
4306;DHT22;2166;49.926;8.608;2023-08-06T08:22:08;15.70;76.40
4306;DHT22;2166;49.926;8.608;2023-08-06T08:24:36;15.80;76.20
4306;DHT22;2166;49.926;8.608;2023-08-06T08:27:06;15.90;76.10
4306;DHT22;2166;49.926;8.608;2023-08-06T08:29:34;16.00;76.20
4306;DHT22;2166;49.926;8.608;2023-08-06T08:32:03;16.20;75.80
4306;DHT22;2166;49.926;8.608;2023-08-06T08:34:31;16.60;75.60
4306;DHT22;2166;49.926;8.608;2023-08-06T08:37:00;17.20;75.60
4306;DHT22;2166;49.926;8.608;2023-08-06T08:39:28;17.80;74.20
4306;DHT22;2166;49.926;8.608;2023-08-06T08:41:57;18.40;74.50
4306;DHT22;2166;49.926;8.608;2023-08-06T08:44:27;19.10;74.70
4306;DHT22;2166;49.926;8.608;2023-08-06T08:46:56;19.90;74.60
4306;DHT22;2166;49.926;8.608;2023-08-06T08:49:27;20.50;74.50
4306;DHT22;2166;49.926;8.608;2023-08-06T08:51:57;20.20;74.30
4306;DHT22;2166;49.926;8.608;2023-08-06T08:54:29;19.60;74.50
4306;DHT22;2166;49.926;8.608;2023-08-06T08:56:59;18.80;74.20
4306;DHT22;2166;49.926;8.608;2023-08-06T08:59:29;18.30;74.30
4306;DHT22;2166;49.926;8.608;2023-08-06T09:02:00;18.40;75.20
4306;DHT22;2166;49.926;8.608;2023-08-06T09:04:30;18.10;74.60
4306;DHT22;2166;49.926;8.608;2023-08-06T09:07:01;17.80;74.30
4306;DHT22;2166;49.926;8.608;2023-08-06T09:09:31;18.00;74.50
4306;DHT22;2166;49.926;8.608;2023-08-06T09:12:10;18.60;74.80
4306;DHT22;2166;49.926;8.608;2023-08-06T09:14:42;18.90;75.00
4306;DHT22;2166;49.926;8.608;2023-08-06T09:17:11;19.40;75.00
4306;DHT22;2166;49.926;8.608;2023-08-06T09:19:42;19.70;74.60
4306;DHT22;2166;49.926;8.608;2023-08-06T09:22:14;20.00;74.10
4306;DHT22;2166;49.926;8.608;2023-08-06T09:24:43;19.80;74.90
4306;DHT22;2166;49.926;8.608;2023-08-06T09:27:11;19.20;74.20
4306;DHT22;2166;49.926;8.608;2023-08-06T09:29:43;18.60;74.40
4306;DHT22;2166;49.926;8.608;2023-08-06T09:32:13;18.10;74.20
4306;DHT22;2166;49.926;8.608;2023-08-06T09:34:46;17.80;74.30
4306;DHT22;2166;49.926;8.608;2023-08-06T09:37:14;17.60;74.40
4306;DHT22;2166;49.926;8.608;2023-08-06T09:39:42;17.40;74.60
4306;DHT22;2166;49.926;8.608;2023-08-06T09:42:10;17.20;74.60
4306;DHT22;2166;49.926;8.608;2023-08-06T09:44:44;17.10;74.70
4306;DHT22;2166;49.926;8.608;2023-08-06T09:47:15;16.70;74.70
4306;DHT22;2166;49.926;8.608;2023-08-06T09:49:45;16.60;75.00
4306;DHT22;2166;49.926;8.608;2023-08-06T09:52:13;16.60;75.10
4306;DHT22;2166;49.926;8.608;2023-08-06T09:54:43;16.50;75.30
4306;DHT22;2166;49.926;8.608;2023-08-06T09:57:13;16.30;75.00
4306;DHT22;2166;49.926;8.608;2023-08-06T09:59:45;16.30;75.20
4306;DHT22;2166;49.926;8.608;2023-08-06T10:02:14;16.40;75.40
4306;DHT22;2166;49.926;8.608;2023-08-06T10:04:44;16.40;75.50
4306;DHT22;2166;49.926;8.608;2023-08-06T10:07:21;16.50;75.10
4306;DHT22;2166;49.926;8.608;2023-08-06T10:09:51;16.60;75.20
4306;DHT22;2166;49.926;8.608;2023-08-06T10:12:20;16.90;75.30
4306;DHT22;2166;49.926;8.608;2023-08-06T10:14:51;17.20;75.20
4306;DHT22;2166;49.926;8.608;2023-08-06T10:17:22;17.70;75.40
4306;DHT22;2166;49.926;8.608;2023-08-06T10:20:05;17.80;74.60
4306;DHT22;2166;49.926;8.608;2023-08-06T10:22:34;17.90;74.30
4306;DHT22;2166;49.926;8.608;2023-08-06T10:25:03;18.10;74.30
4306;DHT22;2166;49.926;8.608;2023-08-06T10:27:33;18.20;74.70
4306;DHT22;2166;49.926;8.608;2023-08-06T10:30:23;18.30;74.50
4306;DHT22;2166;49.926;8.608;2023-08-06T10:32:53;18.20;74.40
4306;DHT22;2166;49.926;8.608;2023-08-06T10:35:34;18.10;74.50
4306;DHT22;2166;49.926;8.608;2023-08-06T10:38:05;18.00;74.40
4306;DHT22;2166;49.926;8.608;2023-08-06T10:40:35;18.40;74.00
4306;DHT22;2166;49.926;8.608;2023-08-06T10:43:05;19.20;73.90
4306;DHT22;2166;49.926;8.608;2023-08-06T10:45:38;20.70;75.40
4306;DHT22;2166;49.926;8.608;2023-08-06T10:48:28;22.00;74.30
4306;DHT22;2166;49.926;8.608;2023-08-06T10:50:59;22.20;73.20
4306;DHT22;2166;49.926;8.608;2023-08-06T10:53:29;23.10;72.90
4306;DHT22;2166;49.926;8.608;2023-08-06T10:56:01;22.80;74.10
4306;DHT22;2166;49.926;8.608;2023-08-06T10:58:33;22.20;73.60
4306;DHT22;2166;49.926;8.608;2023-08-06T11:01:03;22.10;73.70
4306;DHT22;2166;49.926;8.608;2023-08-06T11:03:33;22.30;73.80
4306;DHT22;2166;49.926;8.608;2023-08-06T11:06:01;22.00;73.90
4306;DHT22;2166;49.926;8.608;2023-08-06T11:08:34;21.50;74.00
4306;DHT22;2166;49.926;8.608;2023-08-06T11:11:09;21.70;73.90
4306;DHT22;2166;49.926;8.608;2023-08-06T11:13:38;22.60;74.20
4306;DHT22;2166;49.926;8.608;2023-08-06T11:16:08;22.80;73.30
4306;DHT22;2166;49.926;8.608;2023-08-06T11:18:36;23.00;73.30
4306;DHT22;2166;49.926;8.608;2023-08-06T11:21:05;22.50;73.90
4306;DHT22;2166;49.926;8.608;2023-08-06T11:23:35;21.50;73.40
4306;DHT22;2166;49.926;8.608;2023-08-06T11:26:03;21.00;73.70
4306;DHT22;2166;49.926;8.608;2023-08-06T11:28:32;20.40;74.10
4306;DHT22;2166;49.926;8.608;2023-08-06T11:31:00;20.00;73.20
4306;DHT22;2166;49.926;8.608;2023-08-06T11:33:32;20.10;74.90
4306;DHT22;2166;49.926;8.608;2023-08-06T11:36:01;19.70;73.60
4306;DHT22;2166;49.926;8.608;2023-08-06T11:38:30;19.60;75.90
4306;DHT22;2166;49.926;8.608;2023-08-06T11:40:58;19.70;74.40
4306;DHT22;2166;49.926;8.608;2023-08-06T11:43:30;20.30;74.30
4306;DHT22;2166;49.926;8.608;2023-08-06T11:46:00;20.70;74.20
4306;DHT22;2166;49.926;8.608;2023-08-06T11:48:28;20.50;74.50
4306;DHT22;2166;49.926;8.608;2023-08-06T11:50:58;20.40;73.70
4306;DHT22;2166;49.926;8.608;2023-08-06T11:53:28;20.30;73.80
4306;DHT22;2166;49.926;8.608;2023-08-06T11:55:57;20.00;73.30
4306;DHT22;2166;49.926;8.608;2023-08-06T11:58:25;19.50;73.90
4306;DHT22;2166;49.926;8.608;2023-08-06T12:00:54;19.10;74.00
4306;DHT22;2166;49.926;8.608;2023-08-06T12:03:23;18.70;74.40
4306;DHT22;2166;49.926;8.608;2023-08-06T12:05:55;18.00;74.40
4306;DHT22;2166;49.926;8.608;2023-08-06T12:08:27;17.70;75.00
4306;DHT22;2166;49.926;8.608;2023-08-06T12:10:56;17.40;74.20
4306;DHT22;2166;49.926;8.608;2023-08-06T12:13:25;17.50;74.30
4306;DHT22;2166;49.926;8.608;2023-08-06T12:15:54;17.20;74.50
4306;DHT22;2166;49.926;8.608;2023-08-06T12:18:24;17.00;74.50
4306;DHT22;2166;49.926;8.608;2023-08-06T12:20:52;16.90;74.40
4306;DHT22;2166;49.926;8.608;2023-08-06T12:23:21;16.80;74.60
4306;DHT22;2166;49.926;8.608;2023-08-06T12:25:50;16.70;74.90
4306;DHT22;2166;49.926;8.608;2023-08-06T12:28:19;16.70;74.60
4306;DHT22;2166;49.926;8.608;2023-08-06T12:30:50;16.80;74.80
4306;DHT22;2166;49.926;8.608;2023-08-06T12:33:22;16.80;75.30
4306;DHT22;2166;49.926;8.608;2023-08-06T12:35:50;16.80;75.00
4306;DHT22;2166;49.926;8.608;2023-08-06T12:38:20;16.70;74.40
4306;DHT22;2166;49.926;8.608;2023-08-06T12:40:50;16.70;74.70
4306;DHT22;2166;49.926;8.608;2023-08-06T12:43:18;16.80;75.00
4306;DHT22;2166;49.926;8.608;2023-08-06T12:45:47;16.90;74.50
4306;DHT22;2166;49.926;8.608;2023-08-06T12:48:15;17.00;75.30
4306;DHT22;2166;49.926;8.608;2023-08-06T12:50:44;17.00;74.50
4306;DHT22;2166;49.926;8.608;2023-08-06T12:53:12;17.00;74.40
4306;DHT22;2166;49.926;8.608;2023-08-06T12:55:41;16.90;74.60
4306;DHT22;2166;49.926;8.608;2023-08-06T12:58:11;16.90;74.70
4306;DHT22;2166;49.926;8.608;2023-08-06T13:00:39;16.90;75.00
4306;DHT22;2166;49.926;8.608;2023-08-06T13:03:08;17.00;75.30
4306;DHT22;2166;49.926;8.608;2023-08-06T13:05:36;16.90;74.90
4306;DHT22;2166;49.926;8.608;2023-08-06T13:08:04;16.90;75.20
4306;DHT22;2166;49.926;8.608;2023-08-06T13:10:33;16.90;75.20
4306;DHT22;2166;49.926;8.608;2023-08-06T13:13:02;17.20;75.10
4306;DHT22;2166;49.926;8.608;2023-08-06T13:15:32;17.30;75.80
4306;DHT22;2166;49.926;8.608;2023-08-06T13:18:01;17.50;74.80
4306;DHT22;2166;49.926;8.608;2023-08-06T13:20:30;17.80;74.70
4306;DHT22;2166;49.926;8.608;2023-08-06T13:22:59;17.70;74.90
4306;DHT22;2166;49.926;8.608;2023-08-06T13:25:28;17.70;75.10
4306;DHT22;2166;49.926;8.608;2023-08-06T13:27:56;17.60;74.80
4306;DHT22;2166;49.926;8.608;2023-08-06T13:30:24;17.50;74.90
4306;DHT22;2166;49.926;8.608;2023-08-06T13:32:54;17.30;74.70
4306;DHT22;2166;49.926;8.608;2023-08-06T13:35:23;17.30;74.70
4306;DHT22;2166;49.926;8.608;2023-08-06T13:37:55;17.10;74.50
4306;DHT22;2166;49.926;8.608;2023-08-06T13:40:23;16.90;75.20
4306;DHT22;2166;49.926;8.608;2023-08-06T13:42:51;16.70;75.40
4306;DHT22;2166;49.926;8.608;2023-08-06T13:45:20;16.40;74.80
4306;DHT22;2166;49.926;8.608;2023-08-06T13:47:48;16.30;75.00
4306;DHT22;2166;49.926;8.608;2023-08-06T13:50:18;16.30;75.50
4306;DHT22;2166;49.926;8.608;2023-08-06T13:52:49;16.30;75.20
4306;DHT22;2166;49.926;8.608;2023-08-06T13:55:17;16.30;75.20
4306;DHT22;2166;49.926;8.608;2023-08-06T13:57:46;16.30;75.30
4306;DHT22;2166;49.926;8.608;2023-08-06T14:00:14;16.20;75.20
4306;DHT22;2166;49.926;8.608;2023-08-06T14:02:43;16.10;74.90
4306;DHT22;2166;49.926;8.608;2023-08-06T14:05:12;15.80;75.00
4306;DHT22;2166;49.926;8.608;2023-08-06T14:07:42;15.70;75.50
4306;DHT22;2166;49.926;8.608;2023-08-06T14:10:11;15.50;75.20
4306;DHT22;2166;49.926;8.608;2023-08-06T14:12:40;15.50;75.90
4306;DHT22;2166;49.926;8.608;2023-08-06T14:15:10;15.40;75.20
4306;DHT22;2166;49.926;8.608;2023-08-06T14:17:38;15.30;75.10
4306;DHT22;2166;49.926;8.608;2023-08-06T14:20:07;15.30;75.10
4306;DHT22;2166;49.926;8.608;2023-08-06T14:22:38;15.40;75.20
4306;DHT22;2166;49.926;8.608;2023-08-06T14:25:09;15.50;75.50
4306;DHT22;2166;49.926;8.608;2023-08-06T14:27:37;15.60;75.40
4306;DHT22;2166;49.926;8.608;2023-08-06T14:30:07;15.60;76.00
4306;DHT22;2166;49.926;8.608;2023-08-06T14:32:36;15.60;75.40
4306;DHT22;2166;49.926;8.608;2023-08-06T14:35:05;15.60;75.50
4306;DHT22;2166;49.926;8.608;2023-08-06T14:37:33;15.60;75.30
4306;DHT22;2166;49.926;8.608;2023-08-06T14:40:02;15.70;75.50
4306;DHT22;2166;49.926;8.608;2023-08-06T14:42:33;15.70;75.20
4306;DHT22;2166;49.926;8.608;2023-08-06T14:45:01;15.90;75.20
4306;DHT22;2166;49.926;8.608;2023-08-06T14:47:31;16.20;75.50
4306;DHT22;2166;49.926;8.608;2023-08-06T14:50:00;16.50;75.40
4306;DHT22;2166;49.926;8.608;2023-08-06T14:52:28;16.60;75.30
4306;DHT22;2166;49.926;8.608;2023-08-06T14:54:57;16.70;75.00
4306;DHT22;2166;49.926;8.608;2023-08-06T14:57:25;16.80;75.60
4306;DHT22;2166;49.926;8.608;2023-08-06T14:59:56;16.70;75.70
4306;DHT22;2166;49.926;8.608;2023-08-06T15:02:25;16.60;75.10
4306;DHT22;2166;49.926;8.608;2023-08-06T15:04:54;16.40;74.90
4306;DHT22;2166;49.926;8.608;2023-08-06T15:07:23;16.30;75.10
4306;DHT22;2166;49.926;8.608;2023-08-06T15:09:51;16.20;75.20
4306;DHT22;2166;49.926;8.608;2023-08-06T15:12:40;16.20;75.20
4306;DHT22;2166;49.926;8.608;2023-08-06T15:15:11;16.10;75.10
4306;DHT22;2166;49.926;8.608;2023-08-06T15:17:39;15.90;75.60
4306;DHT22;2166;49.926;8.608;2023-08-06T15:20:08;15.80;75.40
4306;DHT22;2166;49.926;8.608;2023-08-06T15:22:37;15.80;75.30
4306;DHT22;2166;49.926;8.608;2023-08-06T15:25:06;15.70;75.00
4306;DHT22;2166;49.926;8.608;2023-08-06T15:27:34;15.80;75.70
4306;DHT22;2166;49.926;8.608;2023-08-06T15:30:03;15.80;75.40
4306;DHT22;2166;49.926;8.608;2023-08-06T15:32:34;15.70;75.40
4306;DHT22;2166;49.926;8.608;2023-08-06T15:35:03;15.80;75.30
4306;DHT22;2166;49.926;8.608;2023-08-06T15:37:32;15.80;75.70
4306;DHT22;2166;49.926;8.608;2023-08-06T15:40:01;15.80;75.30
4306;DHT22;2166;49.926;8.608;2023-08-06T15:42:30;15.70;75.50
4306;DHT22;2166;49.926;8.608;2023-08-06T15:44:59;15.60;75.40
4306;DHT22;2166;49.926;8.608;2023-08-06T15:47:28;15.50;75.30
4306;DHT22;2166;49.926;8.608;2023-08-06T15:49:58;15.30;75.70
4306;DHT22;2166;49.926;8.608;2023-08-06T15:52:26;15.20;75.20
4306;DHT22;2166;49.926;8.608;2023-08-06T15:54:54;15.20;75.50
4306;DHT22;2166;49.926;8.608;2023-08-06T15:57:30;15.20;75.40
4306;DHT22;2166;49.926;8.608;2023-08-06T15:59:58;15.20;75.50
4306;DHT22;2166;49.926;8.608;2023-08-06T16:02:26;15.20;75.30
4306;DHT22;2166;49.926;8.608;2023-08-06T16:04:55;15.20;75.60
4306;DHT22;2166;49.926;8.608;2023-08-06T16:07:26;15.20;75.70
4306;DHT22;2166;49.926;8.608;2023-08-06T16:09:55;15.20;75.40
4306;DHT22;2166;49.926;8.608;2023-08-06T16:12:23;15.20;75.40
4306;DHT22;2166;49.926;8.608;2023-08-06T16:14:52;15.20;75.50
4306;DHT22;2166;49.926;8.608;2023-08-06T16:17:20;15.10;75.40